Wiscotta, Iowa
Current Conditions -  °F | °C
As of 7:35 PM on Friday 21 Nov 2014 (Local Time) from KPRO Reporting Station
Overcast Overcast  
Wind Chill: 28°   Ceiling: 1600
Heat Index: 36°   Visibility: 10mi
Dew Point: 31°   Wind: 10mph
Humidity: 83%   Direction: 180°S
Pressure: 30.07"   Gusts: NA
Location:  41.5743°N, 94.1829°W
Report Text: KPRO 220135Z AUTO 18009KT 10SM OVC016 02/M01 A3007 RMK AO2 T00201006
Loading
Personal Weather Stations






























Interactive Weather Map New forecast layout! Learn more

10-Day Weather Forecast

Advertisements
Track Severe Weather on mobile